createdAt,value
2022-08-09T00:00:06.058Z,100.00
2022-08-09T00:02:34.676Z,100.00
2022-08-09T00:06:16.302Z,100.00
2022-08-09T00:07:52.388Z,100.00
2022-08-09T00:10:24.367Z,100.00
2022-08-09T00:12:53.345Z,100.00
2022-08-09T00:15:26.799Z,100.00
2022-08-09T00:18:11.185Z,100.00
2022-08-09T00:20:42.293Z,100.00
2022-08-09T00:23:55.775Z,100.00
2022-08-09T00:26:04.922Z,100.00
2022-08-09T00:28:34.749Z,100.00
2022-08-09T00:31:30.432Z,100.00
2022-08-09T00:33:53.978Z,100.00
2022-08-09T00:36:29.514Z,100.00
2022-08-09T00:38:58.892Z,100.00
2022-08-09T00:44:14.425Z,100.00
2022-08-09T00:44:24.851Z,100.00
2022-08-09T00:47:05.133Z,100.00
2022-08-09T00:49:34.919Z,100.00
2022-08-09T00:52:15.985Z,100.00
2022-08-09T00:54:46.291Z,100.00
2022-08-09T00:57:13.831Z,100.00
2022-08-09T00:59:52.436Z,100.00
2022-08-09T01:02:26.890Z,100.00
2022-08-09T01:05:22.399Z,100.00
2022-08-09T01:08:27.666Z,100.00
2022-08-09T01:10:58.170Z,100.00
2022-08-09T01:13:42.013Z,100.00
2022-08-09T01:16:30.443Z,100.00
2022-08-09T01:19:04.800Z,100.00
2022-08-09T01:21:51.294Z,100.00
2022-08-09T01:24:53.486Z,100.00
2022-08-09T01:27:23.884Z,100.00
2022-08-09T01:29:55.537Z,100.00
2022-08-09T01:32:38.972Z,100.00
2022-08-09T01:35:38.770Z,100.00
2022-08-09T01:38:28.205Z,100.00
2022-08-09T01:41:05.199Z,100.00
2022-08-09T01:43:50.183Z,100.00
2022-08-09T01:46:32.413Z,100.00
2022-08-09T01:49:10.195Z,100.00
2022-08-09T01:51:53.035Z,100.00
2022-08-09T01:54:25.841Z,100.00
2022-08-09T01:56:55.294Z,100.00
2022-08-09T01:59:24.514Z,100.00
2022-08-09T02:02:01.216Z,100.00
2022-08-09T02:04:30.300Z,100.00
2022-08-09T02:07:18.120Z,100.00
2022-08-09T02:10:10.405Z,100.00
2022-08-09T02:12:39.340Z,100.00
2022-08-09T02:15:11.987Z,100.00
2022-08-09T02:18:00.908Z,100.00
2022-08-09T02:20:36.610Z,100.00
2022-08-09T02:23:09.051Z,100.00
2022-08-09T02:25:42.182Z,100.00
2022-08-09T02:28:38.981Z,100.00
2022-08-09T02:31:10.702Z,100.00
2022-08-09T02:34:07.514Z,100.00
2022-08-09T02:36:32.357Z,100.00
2022-08-09T02:39:03.946Z,100.00
2022-08-09T02:41:38.617Z,100.00
2022-08-09T02:44:13.621Z,100.00
2022-08-09T02:46:58.646Z,100.00
2022-08-09T02:49:38.890Z,100.00
2022-08-09T02:52:13.129Z,100.00
2022-08-09T02:54:53.870Z,100.00
2022-08-09T02:57:23.784Z,100.00
2022-08-09T03:00:20.766Z,100.00
2022-08-09T03:02:58.059Z,100.00
2022-08-09T03:05:27.051Z,100.00
2022-08-09T03:07:57.012Z,100.00
2022-08-09T03:10:25.884Z,100.00
2022-08-09T03:12:55.260Z,100.00
2022-08-09T03:15:23.987Z,100.00
2022-08-09T03:18:09.850Z,100.00
2022-08-09T03:20:38.519Z,100.00
2022-08-09T03:23:15.110Z,100.00
2022-08-09T03:26:03.016Z,100.00
2022-08-09T03:28:31.657Z,100.00
2022-08-09T03:31:10.203Z,100.00
2022-08-09T03:33:54.932Z,100.00
2022-08-09T03:36:27.860Z,99.60
2022-08-09T03:38:56.522Z,96.57
2022-08-09T03:41:30.087Z,96.57
2022-08-09T03:44:12.220Z,95.36
2022-08-09T03:46:39.682Z,94.47
2022-08-09T03:49:09.027Z,90.03
2022-08-09T03:51:57.485Z,85.80
2022-08-09T03:54:32.453Z,80.70
2022-08-09T03:57:04.425Z,74.85
2022-08-09T03:59:54.721Z,73.22
2022-08-09T04:02:28.488Z,71.86
2022-08-09T04:05:05.676Z,72.55
2022-08-09T04:07:52.776Z,68.09
2022-08-09T04:10:28.777Z,69.31
2022-08-09T04:13:01.073Z,71.18
2022-08-09T04:15:52.326Z,69.46
2022-08-09T04:18:21.268Z,69.97
2022-08-09T04:20:51.232Z,68.92
2022-08-09T04:23:24.437Z,66.16
2022-08-09T04:25:54.243Z,65.59
2022-08-09T04:28:34.121Z,63.12
2022-08-09T04:31:09.128Z,62.82
2022-08-09T04:33:47.357Z,62.37
2022-08-09T04:36:25.892Z,62.20
2022-08-09T04:38:54.243Z,63.64
2022-08-09T04:41:23.629Z,64.48
2022-08-09T04:44:05.066Z,64.27
2022-08-09T04:46:56.911Z,62.56
2022-08-09T04:49:30.127Z,63.99
2022-08-09T04:52:11.157Z,61.18
2022-08-09T04:54:38.823Z,61.02
2022-08-09T04:57:09.431Z,61.38
2022-08-09T04:59:39.795Z,58.11
2022-08-09T05:02:07.663Z,53.80
2022-08-09T05:04:36.792Z,50.89
2022-08-09T05:07:05.824Z,51.32
2022-08-09T05:09:45.339Z,50.53
2022-08-09T05:12:16.392Z,49.54
2022-08-09T05:14:43.942Z,48.50
2022-08-09T05:18:36.706Z,48.25
2022-08-09T05:20:01.131Z,48.05
2022-08-09T05:22:34.954Z,47.70
2022-08-09T05:25:17.376Z,47.70
2022-08-09T05:27:48.089Z,46.99
2022-08-09T05:30:17.732Z,46.80
2022-08-09T05:32:50.900Z,45.46
2022-08-09T05:35:18.901Z,46.54
2022-08-09T05:37:51.268Z,45.48
2022-08-09T05:40:19.760Z,46.39
2022-08-09T05:42:49.969Z,45.19
2022-08-09T05:45:20.381Z,44.56
2022-08-09T05:47:59.229Z,44.76
2022-08-09T05:50:49.098Z,44.89
2022-08-09T05:53:21.710Z,43.38
2022-08-09T05:56:05.823Z,42.96
2022-08-09T05:58:35.379Z,43.12
2022-08-09T06:01:04.468Z,42.67
2022-08-09T06:03:34.755Z,43.75
2022-08-09T06:06:22.370Z,44.63
2022-08-09T06:08:55.092Z,44.92
2022-08-09T06:11:41.014Z,45.29
2022-08-09T06:14:17.609Z,45.09
2022-08-09T06:16:52.355Z,44.48
2022-08-09T06:19:23.460Z,43.98
2022-08-09T06:21:58.257Z,43.93
2022-08-09T06:24:27.860Z,43.02
2022-08-09T06:26:56.613Z,41.35
2022-08-09T06:29:27.085Z,43.55
2022-08-09T06:32:17.196Z,44.37
2022-08-09T06:34:44.828Z,45.01
2022-08-09T06:37:13.944Z,44.93
2022-08-09T06:39:58.232Z,45.27
2022-08-09T06:42:28.392Z,45.60
2022-08-09T06:45:00.298Z,45.79
2022-08-09T06:47:41.899Z,46.86
2022-08-09T06:50:16.633Z,48.16
2022-08-09T06:52:48.730Z,46.34
2022-08-09T06:55:28.413Z,45.86
2022-08-09T06:58:05.887Z,47.73
2022-08-09T07:00:56.314Z,47.17
2022-08-09T07:03:29.061Z,50.15
2022-08-09T07:06:04.780Z,54.12
2022-08-09T07:08:39.671Z,57.80
2022-08-09T07:11:12.461Z,61.17
2022-08-09T07:13:45.562Z,62.67
2022-08-09T07:16:47.945Z,64.50
2022-08-09T07:19:23.377Z,65.43
2022-08-09T07:21:57.783Z,66.77
2022-08-09T07:24:32.792Z,65.63
2022-08-09T07:27:27.274Z,67.21
2022-08-09T07:30:06.118Z,67.79
2022-08-09T07:32:34.973Z,69.08
2022-08-09T07:35:11.815Z,68.86
2022-08-09T07:37:45.569Z,69.57
2022-08-09T07:40:18.558Z,69.12
2022-08-09T07:43:00.086Z,67.19
2022-08-09T07:45:41.044Z,67.32
2022-08-09T07:48:25.836Z,69.55
2022-08-09T07:51:10.327Z,67.99
2022-08-09T07:54:05.354Z,67.14
2022-08-09T07:56:45.157Z,67.01
2022-08-09T07:59:33.810Z,66.30
2022-08-09T08:02:09.071Z,65.71
2022-08-09T08:04:37.442Z,66.76
2022-08-09T08:07:15.394Z,69.61
2022-08-09T08:10:05.709Z,70.97
2022-08-09T08:12:43.827Z,72.90
2022-08-09T08:15:17.159Z,75.22
2022-08-09T08:17:54.719Z,72.69
2022-08-09T08:20:29.137Z,73.93
2022-08-09T08:23:03.486Z,74.63
2022-08-09T08:25:45.871Z,71.97
2022-08-09T08:28:17.951Z,72.64
2022-08-09T08:30:55.458Z,72.70
2022-08-09T08:33:24.704Z,71.10
2022-08-09T08:35:59.765Z,71.53
2022-08-09T08:38:29.775Z,71.62
2022-08-09T08:40:59.350Z,70.34
2022-08-09T08:43:28.033Z,69.08
2022-08-09T08:46:31.576Z,70.09
2022-08-09T08:48:51.162Z,68.98
2022-08-09T08:51:21.255Z,68.89
2022-08-09T08:54:04.400Z,69.10
2022-08-09T08:56:38.045Z,68.67
2022-08-09T08:59:19.720Z,69.32
2022-08-09T09:01:52.789Z,68.47
2022-08-09T09:04:37.748Z,68.28
2022-08-09T09:07:20.971Z,66.19
2022-08-09T09:10:02.269Z,65.45
2022-08-09T09:12:36.521Z,64.87
2022-08-09T09:15:06.485Z,65.16
2022-08-09T09:17:49.619Z,64.82
2022-08-09T09:20:25.875Z,64.36
2022-08-09T09:23:01.679Z,63.18
2022-08-09T09:26:03.840Z,63.16
2022-08-09T09:28:39.268Z,61.78
2022-08-09T09:32:03.415Z,59.98
2022-08-09T09:34:14.685Z,56.65
2022-08-09T09:36:51.010Z,55.20
2022-08-09T09:39:50.259Z,54.72
2022-08-09T09:42:30.903Z,55.84
2022-08-09T09:45:03.374Z,54.96
2022-08-09T09:47:32.499Z,55.13
2022-08-09T09:50:14.266Z,54.60
2022-08-09T09:52:56.332Z,52.32
2022-08-09T09:55:31.310Z,50.87
2022-08-09T09:58:18.739Z,50.92
2022-08-09T10:01:01.644Z,50.97
2022-08-09T10:03:39.717Z,51.22
2022-08-09T10:06:07.725Z,49.79
2022-08-09T10:08:54.245Z,50.36
2022-08-09T10:11:59.573Z,49.66
2022-08-09T10:14:31.858Z,49.78
2022-08-09T10:17:39.609Z,48.96
2022-08-09T10:20:00.712Z,50.69
2022-08-09T10:22:57.228Z,49.57
2022-08-09T10:25:34.927Z,50.34
2022-08-09T10:28:17.196Z,51.26
2022-08-09T10:34:08.422Z,50.01
2022-08-09T10:36:24.005Z,48.01
2022-08-09T10:39:00.286Z,47.00
2022-08-09T10:41:30.101Z,45.39
2022-08-09T10:44:01.999Z,42.06
2022-08-09T10:48:12.524Z,43.58
2022-08-09T10:50:05.875Z,41.17
2022-08-09T10:52:45.599Z,41.81
2022-08-09T10:55:25.746Z,40.46
2022-08-09T10:57:55.654Z,38.23
2022-08-09T11:00:29.288Z,37.58
2022-08-09T11:03:18.023Z,36.95
2022-08-09T11:06:16.227Z,34.57
2022-08-09T11:08:47.709Z,30.64
2022-08-09T11:11:22.008Z,30.21
2022-08-09T11:14:28.999Z,28.22
2022-08-09T11:17:01.205Z,30.21
2022-08-09T11:20:10.637Z,29.93
2022-08-09T11:22:46.079Z,30.53
2022-08-09T11:25:48.001Z,30.87
2022-08-09T11:29:00.518Z,30.31
2022-08-09T11:31:52.930Z,31.19
2022-08-09T11:34:31.798Z,30.45
2022-08-09T11:37:01.022Z,30.95
2022-08-09T11:39:33.759Z,31.53
2022-08-09T11:42:14.842Z,32.00
2022-08-09T11:44:45.894Z,30.88
2022-08-09T11:47:15.604Z,31.86
2022-08-09T11:50:56.927Z,32.24
2022-08-09T11:53:15.193Z,33.10
2022-08-09T11:56:03.007Z,31.83
2022-08-09T11:58:50.054Z,31.26
2022-08-09T12:02:15.926Z,30.25
2022-08-09T12:04:20.897Z,30.87
2022-08-09T12:07:08.217Z,30.71
2022-08-09T12:09:50.343Z,31.35
2022-08-09T12:12:29.226Z,31.97
2022-08-09T12:15:07.465Z,30.97
2022-08-09T12:17:42.252Z,30.30
2022-08-09T12:20:25.772Z,29.16
2022-08-09T12:23:04.701Z,28.81
2022-08-09T12:25:37.339Z,28.83
2022-08-09T12:29:10.435Z,28.42
2022-08-09T12:31:30.951Z,29.91
2022-08-09T12:34:17.369Z,29.55
2022-08-09T12:36:52.699Z,29.52
2022-08-09T12:39:30.463Z,28.59
2022-08-09T12:42:16.888Z,29.51
2022-08-09T12:44:52.274Z,29.90
2022-08-09T12:47:22.785Z,30.01
2022-08-09T12:50:24.137Z,31.04
2022-08-09T12:53:38.779Z,30.82
2022-08-09T12:56:43.409Z,31.78
2022-08-09T12:59:10.612Z,31.25
2022-08-09T13:02:05.258Z,31.54
2022-08-09T13:04:38.829Z,31.76
2022-08-09T13:07:19.685Z,31.74
2022-08-09T13:09:55.785Z,31.90
2022-08-09T13:13:11.253Z,31.28
2022-08-09T13:15:36.584Z,29.07
2022-08-09T13:18:17.265Z,28.67
2022-08-09T13:22:33.925Z,28.51
2022-08-09T13:24:06.723Z,29.09
2022-08-09T13:26:55.463Z,28.59
2022-08-09T13:30:03.230Z,29.65
2022-08-09T13:32:29.240Z,30.89
2022-08-09T13:35:06.626Z,31.14
2022-08-09T13:37:51.139Z,30.81
2022-08-09T13:41:55.681Z,30.67
2022-08-09T13:43:15.670Z,30.40
2022-08-09T13:46:44.375Z,30.34
2022-08-09T13:48:42.281Z,31.06
2022-08-09T13:51:12.782Z,29.02
2022-08-09T13:53:51.941Z,29.86
2022-08-09T13:56:43.173Z,28.96
2022-08-09T13:59:25.364Z,27.81
2022-08-09T14:02:07.673Z,28.67
2022-08-09T14:04:49.507Z,28.44
2022-08-09T14:07:41.981Z,27.54
2022-08-09T14:10:46.316Z,27.20
2022-08-09T14:13:12.111Z,27.54
2022-08-09T14:16:07.166Z,27.56
2022-08-09T14:18:51.723Z,28.33
2022-08-09T14:21:34.277Z,29.13
2022-08-09T14:24:18.299Z,30.17
2022-08-09T14:27:20.523Z,30.54
2022-08-09T14:30:35.651Z,31.37
2022-08-09T14:33:11.189Z,31.33
2022-08-09T14:35:52.838Z,31.78
2022-08-09T14:38:22.071Z,30.70
2022-08-09T14:43:53.738Z,31.95
2022-08-09T14:49:26.047Z,33.01
2022-08-09T14:52:05.533Z,33.88
2022-08-09T14:55:08.429Z,34.50
2022-08-09T14:57:52.582Z,35.44
2022-08-09T15:00:33.500Z,36.86
2022-08-09T16:02:56.923Z,42.10
2022-08-09T16:05:47.251Z,42.73
2022-08-09T16:08:36.290Z,42.22
2022-08-09T16:11:20.020Z,42.62
2022-08-09T16:14:05.136Z,43.35
2022-08-09T16:16:38.076Z,43.87
2022-08-09T16:19:15.077Z,45.04
2022-08-09T16:21:48.710Z,45.11
2022-08-09T16:24:32.879Z,45.54
2022-08-09T16:27:05.158Z,46.51
2022-08-09T16:29:38.032Z,47.43
2022-08-09T16:32:34.990Z,48.28
2022-08-09T16:35:39.208Z,49.50
2022-08-09T16:38:06.687Z,51.20
2022-08-09T16:40:42.558Z,51.63
2022-08-09T16:43:14.406Z,52.12
2022-08-09T16:45:45.948Z,52.21
2022-08-09T16:48:42.405Z,52.29
2022-08-09T16:51:23.532Z,52.22
2022-08-09T16:57:03.925Z,53.03
2022-08-09T16:59:35.850Z,53.63
2022-08-09T17:02:23.226Z,54.33
2022-08-09T17:04:55.613Z,54.67
2022-08-09T17:08:46.753Z,55.51
2022-08-09T17:10:22.845Z,56.07
2022-08-09T17:12:54.204Z,55.92
2022-08-09T17:15:59.338Z,56.60
2022-08-09T17:18:17.898Z,56.10
2022-08-09T17:20:57.742Z,56.32
2022-08-09T17:23:37.069Z,57.06
2022-08-09T17:26:29.427Z,58.08
2022-08-09T17:29:11.681Z,58.11
2022-08-09T17:31:53.056Z,57.34
2022-08-09T17:35:04.429Z,57.76
2022-08-09T17:37:19.247Z,58.54
2022-08-09T17:39:55.366Z,58.40
2022-08-09T17:42:48.453Z,59.60
2022-08-09T17:46:03.069Z,60.28
2022-08-09T17:48:33.292Z,60.56
2022-08-09T17:51:09.786Z,60.56
2022-08-09T17:53:53.436Z,61.75
2022-08-09T17:56:27.647Z,62.69
2022-08-09T17:59:09.057Z,65.02
2022-08-09T18:02:12.837Z,66.31
2022-08-09T18:04:54.291Z,67.02
2022-08-09T18:10:15.367Z,68.25
2022-08-09T18:13:54.303Z,68.73
2022-08-09T18:16:05.080Z,69.86
2022-08-09T18:18:43.261Z,70.99
2022-08-09T18:21:24.218Z,72.13
2022-08-09T18:24:12.672Z,71.93
2022-08-09T18:26:49.389Z,72.63
2022-08-09T18:30:38.192Z,73.15
2022-08-09T18:32:19.310Z,73.83
2022-08-09T18:37:48.940Z,73.79
2022-08-09T18:40:27.080Z,74.38
2022-08-09T18:46:45.944Z,77.90
2022-08-09T18:48:42.386Z,78.63
2022-08-09T18:51:13.359Z,77.75
2022-08-09T18:53:59.655Z,78.45
2022-08-09T18:56:41.895Z,81.14
2022-08-09T18:59:12.886Z,82.32
2022-08-09T19:02:06.619Z,82.92
2022-08-09T19:04:43.349Z,86.68
2022-08-09T19:07:17.626Z,89.52
2022-08-09T19:10:14.121Z,91.32
2022-08-09T19:12:37.305Z,93.25
2022-08-09T19:15:32.930Z,96.25
2022-08-09T19:18:06.740Z,98.33
2022-08-09T19:20:58.506Z,100.00
2022-08-09T19:24:38.055Z,100.00
2022-08-09T19:26:42.508Z,100.00
2022-08-09T19:29:21.643Z,100.00
2022-08-09T19:31:59.719Z,100.00
2022-08-09T19:34:30.157Z,100.00
2022-08-09T19:37:00.278Z,100.00
2022-08-09T19:39:43.569Z,100.00
2022-08-09T19:44:59.749Z,100.00
2022-08-09T19:47:53.132Z,100.00
2022-08-09T19:50:50.452Z,100.00
2022-08-09T19:53:30.527Z,100.00
2022-08-09T19:56:29.106Z,100.00
2022-08-09T19:59:18.298Z,100.00
2022-08-09T20:04:07.140Z,100.00
2022-08-09T20:05:46.824Z,100.00
2022-08-09T20:08:34.801Z,100.00
2022-08-09T20:11:21.448Z,100.00
2022-08-09T20:13:59.919Z,100.00
2022-08-09T20:19:48.668Z,100.00
2022-08-09T20:22:09.885Z,100.00
2022-08-09T20:24:40.844Z,100.00
2022-08-09T20:27:17.743Z,100.00
2022-08-09T20:29:46.346Z,100.00
2022-08-09T20:32:33.270Z,100.00
2022-08-09T20:35:09.204Z,100.00
2022-08-09T20:38:22.043Z,100.00
2022-08-09T20:40:32.240Z,100.00
2022-08-09T20:46:33.706Z,100.00
2022-08-09T20:49:06.722Z,100.00
2022-08-09T20:51:55.222Z,100.00
2022-08-09T20:54:26.279Z,100.00
2022-08-09T20:57:32.339Z,100.00
2022-08-09T21:00:20.962Z,100.00
2022-08-09T21:02:51.717Z,100.00
2022-08-09T21:05:59.523Z,100.00
2022-08-09T21:08:36.570Z,100.00
2022-08-09T21:14:00.462Z,100.00
2022-08-09T21:16:38.138Z,100.00
2022-08-09T21:20:17.591Z,100.00
2022-08-09T21:22:04.676Z,100.00
2022-08-09T21:25:12.708Z,100.00
2022-08-09T21:27:52.094Z,100.00
2022-08-09T21:30:22.497Z,100.00
2022-08-09T21:32:53.587Z,100.00
2022-08-09T21:35:22.034Z,100.00
2022-08-09T21:37:59.499Z,100.00
2022-08-09T21:40:32.620Z,100.00
2022-08-09T21:43:01.461Z,100.00
2022-08-09T21:45:29.655Z,100.00
2022-08-09T21:47:59.220Z,100.00
2022-08-09T21:50:36.061Z,100.00
2022-08-09T21:53:24.069Z,100.00
2022-08-09T21:55:56.549Z,100.00
2022-08-09T21:58:31.185Z,100.00
2022-08-09T22:00:59.384Z,100.00
2022-08-09T22:03:28.014Z,100.00
2022-08-09T22:05:57.896Z,100.00
2022-08-09T22:08:27.772Z,100.00
2022-08-09T22:11:49.389Z,100.00
2022-08-09T22:13:46.118Z,100.00
2022-08-09T22:16:13.560Z,100.00
2022-08-09T22:18:52.148Z,100.00
2022-08-09T22:21:44.629Z,100.00
2022-08-09T22:24:17.133Z,100.00
2022-08-09T22:26:51.670Z,100.00
2022-08-09T22:29:26.794Z,100.00
2022-08-09T22:32:00.056Z,100.00
2022-08-09T22:34:28.986Z,100.00
2022-08-09T22:36:57.545Z,100.00
2022-08-09T22:39:55.742Z,100.00
2022-08-09T22:42:21.402Z,100.00
2022-08-09T22:48:04.654Z,100.00
2022-08-09T22:48:15.524Z,100.00
2022-08-09T22:50:32.793Z,100.00
2022-08-09T22:53:03.756Z,100.00
2022-08-09T22:56:06.140Z,100.00
2022-08-09T22:58:32.542Z,100.00
2022-08-09T23:01:05.897Z,100.00
2022-08-09T23:04:05.287Z,100.00
2022-08-09T23:06:30.318Z,100.00
2022-08-09T23:09:07.985Z,100.00
2022-08-09T23:11:37.306Z,100.00
2022-08-09T23:14:17.365Z,100.00
2022-08-09T23:16:45.564Z,100.00
2022-08-09T23:19:13.207Z,100.00
2022-08-09T23:21:41.866Z,100.00
2022-08-09T23:24:09.601Z,100.00
2022-08-09T23:26:39.111Z,100.00
2022-08-09T23:29:08.033Z,100.00
2022-08-09T23:31:35.639Z,100.00
2022-08-09T23:34:04.360Z,100.00
2022-08-09T23:36:33.039Z,100.00
2022-08-09T23:39:02.082Z,100.00
2022-08-09T23:41:30.024Z,100.00
2022-08-09T23:44:01.068Z,100.00
2022-08-09T23:46:29.886Z,100.00
2022-08-09T23:48:58.517Z,100.00
2022-08-09T23:51:26.471Z,100.00
2022-08-09T23:53:55.457Z,100.00
2022-08-09T23:56:53.465Z,100.00
2022-08-09T23:59:18.177Z,100.00
